Time;durP1;ratioP1;P1;durP2;ratioP2;P2;SDS_P1;SDS_P2;PMS_P1;PMS_P2;Temp;Humidity;BMP_temperature;BMP_pressure;BME280_temperature;BME280_humidity;BME280_pressure;Samples;Min_cycle;Max_cycle;Signal;HPM_P1;HPM_P2
2020/12/26 00:00:33;;;;;;;7.55;3.35;;;2.90;92.50;;;;;;2045887;28;20019;-79
2020/12/26 00:01:34;;;;;;;6.28;3.63;;;2.90;92.50;;;;;;2046692;29;20122;-79
2020/12/26 00:02:35;;;;;;;5.72;3.00;;;2.90;92.50;;;;;;2048541;28;20470;-79
2020/12/26 00:03:35;;;;;;;6.90;3.05;;;2.90;92.50;;;;;;2051980;28;20039;-79
2020/12/26 00:04:38;;;;;;;4.97;3.17;;;2.90;92.50;;;;;;2040483;29;20536;-79
2020/12/26 00:05:39;;;;;;;5.50;2.95;;;3.00;92.50;;;;;;2051242;28;20038;-79
2020/12/26 00:06:40;;;;;;;5.60;3.08;;;2.90;92.50;;;;;;2048837;28;20437;-79
2020/12/26 00:07:43;;;;;;;6.40;3.15;;;3.00;92.50;;;;;;2039220;29;20916;-79
2020/12/26 00:08:44;;;;;;;6.78;3.22;;;3.00;92.40;;;;;;2041708;29;20111;-79
2020/12/26 00:09:45;;;;;;;6.32;3.35;;;3.00;92.40;;;;;;2048712;28;20441;-80
2020/12/26 00:10:48;;;;;;;6.07;2.95;;;3.00;92.40;;;;;;2053584;28;20027;-79
2020/12/26 00:11:51;;;;;;;7.05;3.10;;;3.00;92.40;;;;;;2043810;28;20035;-80
2020/12/26 00:12:51;;;;;;;5.88;3.20;;;3.00;92.40;;;;;;2038783;28;20032;-80
2020/12/26 00:13:52;;;;;;;5.47;3.10;;;3.00;92.40;;;;;;2048910;28;20035;-80
2020/12/26 00:14:53;;;;;;;6.05;2.88;;;3.00;92.40;;;;;;2050009;28;20502;-80
2020/12/26 00:15:53;;;;;;;5.80;3.05;;;3.00;92.40;;;;;;2056198;28;20026;-79
2020/12/26 00:16:58;;;;;;;5.80;3.20;;;3.10;92.40;;;;;;2048656;29;20039;-79
2020/12/26 00:17:58;;;;;;;6.65;3.42;;;3.10;92.40;;;;;;2047122;28;20035;-79
2020/12/26 00:18:59;;;;;;;6.45;3.28;;;3.10;92.70;;;;;;2049245;28;20493;-79
2020/12/26 00:19:59;;;;;;;5.70;3.22;;;3.10;92.40;;;;;;2048276;28;20575;-79
2020/12/26 00:21:04;;;;;;;6.05;2.80;;;3.10;92.40;;;;;;2041909;29;20466;-80
2020/12/26 00:22:04;;;;;;;5.32;3.10;;;3.10;92.40;;;;;;2049872;28;20025;-79
2020/12/26 00:23:05;;;;;;;6.55;3.45;;;3.10;92.30;;;;;;2052806;28;21099;-79
2020/12/26 00:24:06;;;;;;;6.32;2.95;;;3.10;92.30;;;;;;2041215;29;20055;-80
2020/12/26 00:25:06;;;;;;;7.53;3.30;;;3.10;92.30;;;;;;2037866;29;20047;-79
2020/12/26 00:26:07;;;;;;;7.30;3.50;;;3.10;92.30;;;;;;2049157;28;20063;-80
2020/12/26 00:27:08;;;;;;;5.50;3.05;;;3.10;92.30;;;;;;2047115;28;20063;-80
2020/12/26 00:28:09;;;;;;;5.07;3.00;;;3.10;92.60;;;;;;2057850;28;20023;-80
2020/12/26 00:29:10;;;;;;;5.18;2.72;;;3.10;92.30;;;;;;2057082;28;20122;-80
2020/12/26 00:30:11;;;;;;;5.72;3.10;;;3.10;92.30;;;;;;2057848;28;20022;-80
2020/12/26 00:31:17;;;;;;;5.45;3.00;;;3.20;92.30;;;;;;2048786;28;20023;-80
2020/12/26 00:32:19;;;;;;;5.45;2.95;;;3.20;92.30;;;;;;2046074;28;20494;-80
2020/12/26 00:33:20;;;;;;;5.65;2.92;;;3.10;92.30;;;;;;2046346;28;20034;-80
2020/12/26 00:34:21;;;;;;;6.15;3.10;;;3.10;92.30;;;;;;2057595;28;20027;-80
2020/12/26 00:35:22;;;;;;;5.78;3.00;;;3.10;92.30;;;;;;2057913;28;20033;-80
2020/12/26 00:36:22;;;;;;;5.80;2.97;;;3.10;92.30;;;;;;2052287;28;20605;-80
2020/12/26 00:37:23;;;;;;;6.90;2.97;;;3.20;92.30;;;;;;2055904;28;20038;-80
2020/12/26 00:38:24;;;;;;;5.15;3.00;;;3.20;92.30;;;;;;2056048;28;20133;-80
2020/12/26 00:39:24;;;;;;;6.15;3.00;;;3.20;92.30;;;;;;2046835;28;20047;-80
2020/12/26 00:40:25;;;;;;;4.82;2.80;;;3.20;92.30;;;;;;2039055;29;20019;-80
2020/12/26 00:41:25;;;;;;;5.15;2.80;;;3.20;92.30;;;;;;2047944;29;20033;-80
2020/12/26 00:42:26;;;;;;;5.18;2.90;;;3.20;92.30;;;;;;2057136;28;20044;-79
2020/12/26 00:43:27;;;;;;;7.40;3.13;;;3.20;92.30;;;;;;2054118;28;20043;-80
2020/12/26 00:44:27;;;;;;;6.13;2.95;;;3.20;92.30;;;;;;2057713;28;20027;-80
2020/12/26 00:45:28;;;;;;;6.28;3.10;;;3.20;92.30;;;;;;2049102;29;20498;-80
2020/12/26 00:46:28;;;;;;;5.10;2.90;;;3.20;92.30;;;;;;2049546;28;20053;-80
2020/12/26 00:47:29;;;;;;;5.15;2.75;;;3.20;92.30;;;;;;2057368;28;20501;-80
2020/12/26 00:48:30;;;;;;;6.13;2.85;;;3.20;92.30;;;;;;2045082;28;20035;-80
2020/12/26 00:49:30;;;;;;;5.10;2.67;;;3.20;92.30;;;;;;2041779;29;20035;-80
2020/12/26 00:50:31;;;;;;;6.32;2.83;;;3.20;92.30;;;;;;2049349;28;20122;-82
2020/12/26 00:51:32;;;;;;;6.32;2.72;;;3.20;92.30;;;;;;2041833;29;20122;-80
2020/12/26 00:52:32;;;;;;;4.97;2.60;;;3.20;92.30;;;;;;2051400;28;20046;-80
2020/12/26 00:53:33;;;;;;;5.70;2.45;;;3.20;92.30;;;;;;2049012;28;20117;-80
2020/12/26 00:54:34;;;;;;;5.22;2.88;;;3.20;92.30;;;;;;2048976;28;20371;-81
2020/12/26 00:55:34;;;;;;;5.35;2.58;;;3.20;92.30;;;;;;2054481;28;20028;-80
2020/12/26 00:56:36;;;;;;;4.72;2.72;;;3.20;92.30;;;;;;2055206;28;20026;-80
2020/12/26 00:57:36;;;;;;;5.90;3.03;;;3.30;92.30;;;;;;2052427;28;20039;-80
2020/12/26 00:58:37;;;;;;;5.75;2.53;;;3.30;92.30;;;;;;2055989;28;20441;-79
2020/12/26 00:59:38;;;;;;;5.07;2.80;;;3.30;92.30;;;;;;2049769;28;20028;-80
2020/12/26 01:00:39;;;;;;;5.22;2.85;;;3.30;92.30;;;;;;2029536;29;20024;-80
2020/12/26 01:01:42;;;;;;;4.82;2.67;;;3.30;92.30;;;;;;2032647;29;20059;-80
2020/12/26 01:02:43;;;;;;;4.85;2.40;;;3.30;92.30;;;;;;2040442;28;20059;-80
2020/12/26 01:03:44;;;;;;;6.35;2.83;;;3.20;92.30;;;;;;2048779;29;20042;-80
2020/12/26 01:04:44;;;;;;;4.82;2.42;;;3.30;92.30;;;;;;2042535;29;20028;-80
2020/12/26 01:05:45;;;;;;;4.68;2.55;;;3.30;92.30;;;;;;2037304;29;20051;-80
2020/12/26 01:06:54;;;;;;;5.60;2.92;;;3.30;92.30;;;;;;2049580;28;20363;-80
2020/12/26 01:07:55;;;;;;;6.25;2.85;;;3.30;92.30;;;;;;2057736;28;20025;-80
2020/12/26 01:08:56;;;;;;;6.18;2.97;;;3.30;92.60;;;;;;2056458;28;20477;-80
2020/12/26 01:09:57;;;;;;;5.40;2.80;;;3.30;92.30;;;;;;2046766;28;20038;-80
2020/12/26 01:11:00;;;;;;;4.85;2.80;;;3.30;92.30;;;;;;2046855;28;20109;-79
2020/12/26 01:12:04;;;;;;;8.20;3.28;;;3.30;92.30;;;;;;2047892;28;20039;-79
2020/12/26 01:13:05;;;;;;;6.85;3.03;;;3.30;92.30;;;;;;2051890;28;20027;-79
2020/12/26 01:14:06;;;;;;;5.82;3.00;;;3.30;92.30;;;;;;2053196;28;20057;-80
2020/12/26 01:15:06;;;;;;;5.45;2.95;;;3.30;92.30;;;;;;2056590;28;20121;-80
2020/12/26 01:16:11;;;;;;;5.88;2.78;;;3.30;92.30;;;;;;2049357;29;20062;-79
2020/12/26 01:17:11;;;;;;;5.25;2.88;;;3.30;92.30;;;;;;2038996;29;20024;-79
2020/12/26 01:18:12;;;;;;;6.50;2.88;;;3.30;92.30;;;;;;2039925;29;20062;-80
2020/12/26 01:19:12;;;;;;;5.80;3.17;;;3.30;92.30;;;;;;2057342;28;20126;-80
2020/12/26 01:20:13;;;;;;;5.55;3.22;;;3.30;92.30;;;;;;2056336;28;20023;-80
2020/12/26 01:21:14;;;;;;;6.47;3.00;;;3.30;92.50;;;;;;2051219;28;20522;-80
2020/12/26 01:22:15;;;;;;;6.63;3.45;;;3.30;92.30;;;;;;2057500;28;20026;-80
2020/12/26 01:23:15;;;;;;;5.82;2.72;;;3.30;92.30;;;;;;2048538;28;20027;-80
2020/12/26 01:24:20;;;;;;;5.80;3.10;;;3.30;92.30;;;;;;2048687;28;20046;-79
2020/12/26 01:25:20;;;;;;;5.60;3.08;;;3.30;92.20;;;;;;2050201;28;20038;-80
2020/12/26 01:26:21;;;;;;;5.90;3.10;;;3.30;92.20;;;;;;2045776;28;20478;-79
2020/12/26 01:27:21;;;;;;;5.78;3.30;;;3.40;92.30;;;;;;2033165;29;20032;-80
2020/12/26 01:28:22;;;;;;;6.68;3.85;;;3.40;92.30;;;;;;2038917;29;20376;-80
2020/12/26 01:29:23;;;;;;;5.63;3.08;;;3.40;92.20;;;;;;2039890;29;20034;-79
2020/12/26 01:30:23;;;;;;;7.05;3.65;;;3.40;92.20;;;;;;2032560;29;20035;-80
2020/12/26 01:31:24;;;;;;;6.55;3.40;;;3.40;92.20;;;;;;2043594;28;20413;-80
2020/12/26 01:32:27;;;;;;;6.20;3.78;;;3.40;92.20;;;;;;2054115;28;20035;-80
2020/12/26 01:33:28;;;;;;;5.10;3.05;;;3.40;92.20;;;;;;2049970;28;20035;-80
2020/12/26 01:34:29;;;;;;;6.78;3.72;;;3.40;92.20;;;;;;2047859;28;20035;-80
2020/12/26 01:35:29;;;;;;;6.40;3.50;;;3.40;92.20;;;;;;2048616;28;20019;-80
2020/12/26 01:36:30;;;;;;;5.72;3.58;;;3.40;92.20;;;;;;2057937;28;20481;-80
2020/12/26 01:37:31;;;;;;;6.78;3.50;;;3.40;92.20;;;;;;2055532;28;20035;-80
2020/12/26 01:38:31;;;;;;;7.32;3.70;;;3.40;92.20;;;;;;2048788;29;20154;-80
2020/12/26 01:39:32;;;;;;;6.63;3.90;;;3.40;92.30;;;;;;2040367;29;20090;-80
2020/12/26 01:40:33;;;;;;;6.70;3.65;;;3.40;92.20;;;;;;2048605;28;20036;-80
2020/12/26 01:41:33;;;;;;;5.88;3.70;;;3.40;92.30;;;;;;2055809;28;20501;-80
2020/12/26 01:42:34;;;;;;;6.97;3.97;;;3.40;92.30;;;;;;2058014;28;20042;-80
2020/12/26 01:43:35;;;;;;;6.70;4.00;;;3.40;92.30;;;;;;2039839;28;20569;-80
2020/12/26 01:44:35;;;;;;;6.85;3.88;;;3.40;92.30;;;;;;2039601;29;20035;-80
2020/12/26 01:45:36;;;;;;;8.10;4.03;;;3.40;92.30;;;;;;2056978;28;20081;-80
2020/12/26 01:46:36;;;;;;;6.65;3.70;;;3.40;92.30;;;;;;2048910;28;20396;-79
2020/12/26 01:47:37;;;;;;;6.68;3.80;;;3.40;92.30;;;;;;2047963;29;20035;-80
2020/12/26 01:48:38;;;;;;;7.00;3.67;;;3.40;92.20;;;;;;2047969;28;20035;-80
2020/12/26 01:49:39;;;;;;;6.78;4.00;;;3.50;92.30;;;;;;2051377;28;20118;-80
2020/12/26 01:50:40;;;;;;;6.95;3.78;;;3.40;92.30;;;;;;2055449;28;20559;-80
2020/12/26 01:51:42;;;;;;;7.00;3.90;;;3.40;92.30;;;;;;2053845;28;20514;-80
2020/12/26 01:52:44;;;;;;;6.60;4.05;;;3.40;92.30;;;;;;2057235;28;20468;-80
2020/12/26 01:53:47;;;;;;;8.07;4.07;;;3.40;92.30;;;;;;2051663;28;20058;-80
2020/12/26 01:54:47;;;;;;;6.57;3.67;;;3.40;92.30;;;;;;2051580;28;20114;-80
2020/12/26 01:55:49;;;;;;;6.07;3.47;;;3.40;92.30;;;;;;2050111;28;20473;-80
2020/12/26 01:56:50;;;;;;;7.38;3.63;;;3.40;92.30;;;;;;2049370;28;20094;-80
2020/12/26 01:57:53;;;;;;;7.07;3.95;;;3.40;92.30;;;;;;2051394;28;20031;-80
2020/12/26 01:58:55;;;;;;;6.55;4.20;;;3.50;92.30;;;;;;2056138;28;20535;-80
2020/12/26 01:59:55;;;;;;;6.85;3.88;;;3.50;92.30;;;;;;2056328;28;20027;-80
2020/12/26 02:00:56;;;;;;;6.70;3.83;;;3.50;92.30;;;;;;2054490;28;20051;-79
2020/12/26 02:01:57;;;;;;;6.55;3.97;;;3.50;92.30;;;;;;2054812;28;20059;-79
2020/12/26 02:02:58;;;;;;;5.90;3.70;;;3.50;92.30;;;;;;2063843;28;20022;-80
2020/12/26 02:03:59;;;;;;;7.60;3.95;;;3.50;92.30;;;;;;2058173;28;20027;-79
2020/12/26 02:05:00;;;;;;;5.13;3.22;;;3.50;92.30;;;;;;2067412;28;20027;-80
2020/12/26 02:06:01;;;;;;;5.97;3.70;;;3.50;92.30;;;;;;2057330;28;20034;-80
2020/12/26 02:07:05;;;;;;;5.82;3.60;;;3.50;92.30;;;;;;2044586;28;20501;-80
2020/12/26 02:08:06;;;;;;;5.63;3.35;;;3.50;92.30;;;;;;2058528;28;20031;-80
2020/12/26 02:09:06;;;;;;;6.47;3.60;;;3.50;92.30;;;;;;2059564;28;20519;-79
2020/12/26 02:10:10;;;;;;;7.13;3.80;;;3.50;92.20;;;;;;2047173;29;20039;-79
2020/12/26 02:11:11;;;;;;;7.88;3.75;;;3.50;92.20;;;;;;2040876;29;20019;-80
2020/12/26 02:12:11;;;;;;;7.40;3.55;;;3.50;92.20;;;;;;2053336;28;20075;-79
2020/12/26 02:13:12;;;;;;;6.60;3.50;;;3.50;92.20;;;;;;2050360;29;20079;-79
2020/12/26 02:14:12;;;;;;;6.20;3.47;;;3.50;92.30;;;;;;2051801;28;20081;-78
2020/12/26 02:15:14;;;;;;;5.75;3.63;;;3.50;92.30;;;;;;2063751;28;20084;-80
2020/12/26 02:16:17;;;;;;;6.90;3.40;;;3.50;92.30;;;;;;2065320;28;20015;-79
2020/12/26 02:17:24;;;;;;;6.75;3.80;;;3.50;92.30;;;;;;2052545;29;20465;-79
2020/12/26 02:18:25;;;;;;;6.13;3.30;;;3.50;92.30;;;;;;2049572;29;20047;-80
2020/12/26 02:19:26;;;;;;;6.35;3.72;;;3.50;92.30;;;;;;2043949;28;20446;-79
2020/12/26 02:20:26;;;;;;;5.85;3.45;;;3.50;92.20;;;;;;2052585;28;20019;-79
2020/12/26 02:21:28;;;;;;;6.35;3.70;;;3.60;92.30;;;;;;2049128;28;20472;-80
2020/12/26 02:22:29;;;;;;;5.78;3.28;;;3.50;92.30;;;;;;2040428;28;20031;-79
2020/12/26 02:23:30;;;;;;;5.97;3.40;;;3.50;92.30;;;;;;2045998;29;20390;-79
2020/12/26 02:24:30;;;;;;;5.60;3.30;;;3.60;92.30;;;;;;2049789;28;20027;-79
2020/12/26 02:25:31;;;;;;;4.75;2.97;;;3.60;92.30;;;;;;2045848;28;20028;-79
2020/12/26 02:26:32;;;;;;;5.20;3.30;;;3.60;92.30;;;;;;2056023;28;20477;-79
2020/12/26 02:27:32;;;;;;;6.20;3.05;;;3.60;92.30;;;;;;2048921;28;20553;-79
2020/12/26 02:28:33;;;;;;;6.45;3.53;;;3.60;92.30;;;;;;2041422;29;20032;-80
2020/12/26 02:29:33;;;;;;;6.20;3.25;;;3.60;92.30;;;;;;2033438;29;20032;-79
2020/12/26 02:30:34;;;;;;;8.23;4.07;;;3.60;92.30;;;;;;2033121;29;20638;-79
2020/12/26 02:31:36;;;;;;;6.63;3.28;;;3.60;92.30;;;;;;2046723;29;20028;-79
2020/12/26 02:32:36;;;;;;;5.90;3.33;;;3.60;92.30;;;;;;2053528;29;20030;-79
2020/12/26 02:33:37;;;;;;;5.13;3.03;;;3.60;92.30;;;;;;2052306;28;20053;-79
2020/12/26 02:34:37;;;;;;;5.93;3.33;;;3.60;92.30;;;;;;2048231;29;20090;-79
2020/12/26 02:35:38;;;;;;;5.20;3.00;;;3.60;92.30;;;;;;2041639;29;20038;-80
2020/12/26 02:36:39;;;;;;;5.45;3.20;;;3.70;92.40;;;;;;2043511;29;20047;-79
2020/12/26 02:37:39;;;;;;;4.90;2.95;;;3.70;92.40;;;;;;2045236;29;20035;-79
2020/12/26 02:38:40;;;;;;;6.97;3.47;;;3.70;92.40;;;;;;2052178;28;20039;-79
2020/12/26 02:39:41;;;;;;;4.32;2.70;;;3.70;92.40;;;;;;2055470;28;20058;-79
2020/12/26 02:40:42;;;;;;;5.30;2.92;;;3.70;92.40;;;;;;2059254;28;20031;-78
2020/12/26 02:41:43;;;;;;;5.50;3.00;;;3.70;92.40;;;;;;2054532;28;20085;-79
2020/12/26 02:42:44;;;;;;;5.20;3.30;;;3.70;92.40;;;;;;2049979;28;20028;-79
2020/12/26 02:43:45;;;;;;;5.13;2.70;;;3.70;92.40;;;;;;2050276;28;20030;-79
2020/12/26 02:44:45;;;;;;;7.50;3.53;;;3.70;92.30;;;;;;2052105;28;20043;-79
2020/12/26 02:45:47;;;;;;;5.22;3.08;;;3.70;92.30;;;;;;2046705;28;20039;-79
2020/12/26 02:46:49;;;;;;;6.97;3.30;;;3.70;92.40;;;;;;2055719;28;20508;-79
2020/12/26 02:47:50;;;;;;;6.13;3.28;;;3.70;92.40;;;;;;2055679;28;20042;-79
2020/12/26 02:48:51;;;;;;;5.72;3.22;;;3.70;92.40;;;;;;2055757;28;20421;-79
2020/12/26 02:49:51;;;;;;;5.53;3.20;;;3.70;92.40;;;;;;2050559;28;20035;-79
2020/12/26 02:50:53;;;;;;;5.80;3.25;;;3.70;92.40;;;;;;2054956;28;20034;-79
2020/12/26 02:51:53;;;;;;;4.55;3.20;;;3.70;92.40;;;;;;2047807;28;20568;-79
2020/12/26 02:52:54;;;;;;;6.20;3.30;;;3.70;92.40;;;;;;2054226;28;20109;-79
2020/12/26 02:53:54;;;;;;;5.32;2.97;;;3.70;92.40;;;;;;2046680;29;20406;-79
2020/12/26 02:54:55;;;;;;;6.70;3.67;;;3.70;92.40;;;;;;2032539;29;20020;-79
2020/12/26 02:55:56;;;;;;;5.95;3.67;;;3.70;92.40;;;;;;2045570;29;20159;-79
2020/12/26 02:56:56;;;;;;;5.57;3.22;;;3.70;92.40;;;;;;2035928;29;20514;-79
2020/12/26 02:57:57;;;;;;;5.95;3.38;;;3.70;92.70;;;;;;2039675;29;20040;-79
2020/12/26 02:58:58;;;;;;;5.18;3.38;;;3.70;92.40;;;;;;2042703;28;20044;-79
2020/12/26 02:59:58;;;;;;;5.50;3.33;;;3.70;92.40;;;;;;2050794;28;20486;-79
2020/12/26 03:00:59;;;;;;;6.43;3.65;;;3.70;92.40;;;;;;2043296;29;20457;-80
2020/12/26 03:02:00;;;;;;;5.40;3.30;;;3.70;92.40;;;;;;2039177;29;20066;-79
2020/12/26 03:03:00;;;;;;;7.25;3.67;;;3.70;92.40;;;;;;2048409;28;20027;-79
2020/12/26 03:04:01;;;;;;;7.15;4.22;;;3.70;92.40;;;;;;2048821;29;20027;-79
2020/12/26 03:05:01;;;;;;;6.85;3.85;;;3.70;92.50;;;;;;2040903;28;20083;-79
2020/12/26 03:06:02;;;;;;;6.97;4.00;;;3.60;92.40;;;;;;2045345;29;20497;-79
2020/12/26 03:07:03;;;;;;;6.22;3.67;;;3.70;92.50;;;;;;2049462;28;20059;-79
2020/12/26 03:08:04;;;;;;;10.13;4.15;;;3.70;92.50;;;;;;2051570;28;20023;-79
2020/12/26 03:09:04;;;;;;;5.72;3.58;;;3.70;92.50;;;;;;2048331;29;20567;-80
2020/12/26 03:10:05;;;;;;;8.02;4.22;;;3.70;92.50;;;;;;2039333;29;20028;-79
2020/12/26 03:11:06;;;;;;;8.32;4.22;;;3.70;92.50;;;;;;2052017;28;20022;-79
2020/12/26 03:12:06;;;;;;;6.88;4.13;;;3.70;92.50;;;;;;2040193;29;20134;-79
2020/12/26 03:13:07;;;;;;;7.85;3.95;;;3.70;92.50;;;;;;2042964;29;20090;-80
2020/12/26 03:14:08;;;;;;;7.28;4.07;;;3.70;92.50;;;;;;2056837;28;20508;-80
2020/12/26 03:15:08;;;;;;;7.07;4.38;;;3.60;92.50;;;;;;2051254;28;20437;-80
2020/12/26 03:16:09;;;;;;;5.82;3.55;;;3.70;92.50;;;;;;2056202;28;20115;-79
2020/12/26 03:17:09;;;;;;;5.88;4.00;;;3.70;92.60;;;;;;2038943;29;20039;-79
2020/12/26 03:18:10;;;;;;;5.90;3.58;;;3.60;92.50;;;;;;2040898;29;20086;-79
2020/12/26 03:19:11;;;;;;;6.60;3.83;;;3.60;92.60;;;;;;2032324;29;20059;-79
2020/12/26 03:20:11;;;;;;;5.63;3.55;;;3.70;92.60;;;;;;2035799;29;20079;-79
2020/12/26 03:21:13;;;;;;;7.88;3.40;;;3.60;92.60;;;;;;2053839;28;20520;-79
2020/12/26 03:22:14;;;;;;;7.30;3.65;;;3.60;92.60;;;;;;2047732;28;20093;-79
2020/12/26 03:23:14;;;;;;;6.32;3.78;;;3.60;92.60;;;;;;2047585;29;20035;-79
2020/12/26 03:24:15;;;;;;;7.72;3.75;;;3.60;92.60;;;;;;2053595;28;20461;-79
2020/12/26 03:25:15;;;;;;;5.72;3.75;;;3.60;92.60;;;;;;2053768;28;20085;-79
2020/12/26 03:26:16;;;;;;;5.95;3.90;;;3.60;92.60;;;;;;2046117;29;20054;-79
2020/12/26 03:27:17;;;;;;;8.23;4.25;;;3.60;92.70;;;;;;2039881;29;20123;-79
2020/12/26 03:28:17;;;;;;;5.40;3.58;;;3.60;92.70;;;;;;2044004;29;20031;-79
2020/12/26 03:29:18;;;;;;;7.05;3.75;;;3.50;92.70;;;;;;2047504;28;20422;-80
2020/12/26 03:30:18;;;;;;;6.22;3.75;;;3.60;92.70;;;;;;2049967;28;20035;-79
2020/12/26 03:31:19;;;;;;;6.22;3.72;;;3.50;92.70;;;;;;2050718;28;20388;-79
2020/12/26 03:32:21;;;;;;;6.72;3.88;;;3.50;92.70;;;;;;2045940;29;20497;-79
2020/12/26 03:33:22;;;;;;;5.45;3.70;;;3.50;92.80;;;;;;2051920;28;20058;-80
2020/12/26 03:34:23;;;;;;;5.47;3.70;;;3.50;92.80;;;;;;2041215;29;20087;-80
2020/12/26 03:35:23;;;;;;;5.50;3.45;;;3.50;92.80;;;;;;2045881;28;20034;-79
2020/12/26 03:36:24;;;;;;;5.97;3.83;;;3.50;92.80;;;;;;2054758;28;20444;-80
2020/12/26 03:37:27;;;;;;;8.30;4.10;;;3.50;92.90;;;;;;2048663;28;20066;-80
2020/12/26 03:38:28;;;;;;;7.03;4.30;;;3.40;92.80;;;;;;2054862;28;20047;-79
2020/12/26 03:39:29;;;;;;;5.30;3.58;;;3.40;92.80;;;;;;2051367;28;20460;-79
2020/12/26 03:40:29;;;;;;;6.60;3.70;;;3.40;92.90;;;;;;2045989;28;20030;-79
2020/12/26 03:41:30;;;;;;;6.40;4.03;;;3.40;92.90;;;;;;2043891;28;20072;-80
2020/12/26 03:42:31;;;;;;;5.60;3.85;;;3.40;92.90;;;;;;2054373;28;20514;-80
2020/12/26 03:43:32;;;;;;;7.35;4.18;;;3.40;93.20;;;;;;2056258;28;20034;-80
2020/12/26 03:44:33;;;;;;;7.03;4.20;;;3.30;93.00;;;;;;2038743;28;20406;-80
2020/12/26 03:45:33;;;;;;;7.22;4.20;;;3.30;93.20;;;;;;2032852;29;20037;-80
2020/12/26 03:46:34;;;;;;;8.05;3.92;;;3.40;93.00;;;;;;2047251;28;20034;-80
2020/12/26 03:47:35;;;;;;;7.50;3.97;;;3.30;92.90;;;;;;2047038;29;20028;-80
2020/12/26 03:48:35;;;;;;;6.53;3.90;;;3.30;93.00;;;;;;2040122;29;20379;-79
2020/12/26 03:49:37;;;;;;;6.40;3.63;;;3.30;93.00;;;;;;2039352;29;20027;-79
2020/12/26 03:50:38;;;;;;;6.10;3.63;;;3.30;93.00;;;;;;2039390;29;20032;-80
2020/12/26 03:51:38;;;;;;;6.90;4.20;;;3.30;93.00;;;;;;2048721;28;20027;-80
2020/12/26 03:52:39;;;;;;;6.93;3.88;;;3.30;93.00;;;;;;2048292;29;20050;-80
2020/12/26 03:53:39;;;;;;;5.75;3.83;;;3.30;93.00;;;;;;2053584;28;20019;-79
2020/12/26 03:54:43;;;;;;;5.88;3.83;;;3.30;93.00;;;;;;2044724;28;20028;-80
2020/12/26 03:55:44;;;;;;;6.97;3.80;;;3.30;93.00;;;;;;2036320;29;20020;-79
2020/12/26 03:56:44;;;;;;;5.43;3.72;;;3.30;93.00;;;;;;2040559;29;20542;-79
2020/12/26 03:57:45;;;;;;;6.85;3.92;;;3.30;93.00;;;;;;2040536;29;20032;-79
2020/12/26 03:58:45;;;;;;;6.13;3.70;;;3.30;93.00;;;;;;2043589;29;20114;-79
2020/12/26 03:59:46;;;;;;;6.95;3.92;;;3.30;93.00;;;;;;2047482;28;20422;-79
2020/12/26 04:00:47;;;;;;;6.88;3.20;;;3.30;93.00;;;;;;2053296;28;20034;-79
2020/12/26 04:01:47;;;;;;;5.20;3.42;;;3.30;93.00;;;;;;2044757;28;20031;-79
2020/12/26 04:02:48;;;;;;;6.25;3.88;;;3.30;93.00;;;;;;2040586;29;20465;-79
2020/12/26 04:03:49;;;;;;;5.38;3.35;;;3.30;93.00;;;;;;2052376;28;20098;-79
2020/12/26 04:04:49;;;;;;;7.28;3.50;;;3.30;93.00;;;;;;2056811;28;20023;-79
2020/12/26 04:05:50;;;;;;;4.82;3.17;;;3.30;93.00;;;;;;2049264;28;20125;-79
2020/12/26 04:06:50;;;;;;;6.53;3.20;;;3.30;93.00;;;;;;2041444;29;20121;-79
2020/12/26 04:07:52;;;;;;;4.90;3.13;;;3.30;93.00;;;;;;2039929;29;20032;-79
2020/12/26 04:08:52;;;;;;;6.22;3.22;;;3.30;93.00;;;;;;2048171;29;20063;-79
2020/12/26 04:09:53;;;;;;;4.38;2.92;;;3.30;93.00;;;;;;2042009;28;20046;-79
2020/12/26 04:10:54;;;;;;;5.20;3.33;;;3.30;93.00;;;;;;2046723;29;20086;-79
2020/12/26 04:11:54;;;;;;;5.45;3.30;;;3.30;93.00;;;;;;2053400;28;20065;-79
2020/12/26 04:12:55;;;;;;;5.60;3.35;;;3.30;93.00;;;;;;2051184;28;20113;-79
2020/12/26 04:13:55;;;;;;;5.20;3.30;;;3.30;93.00;;;;;;2045931;28;20031;-79
2020/12/26 04:14:56;;;;;;;5.50;3.22;;;3.30;93.00;;;;;;2048750;28;20464;-79
2020/12/26 04:15:56;;;;;;;5.88;3.10;;;3.30;93.10;;;;;;2048393;29;20036;-79
2020/12/26 04:16:58;;;;;;;5.03;3.35;;;3.30;93.10;;;;;;2048571;28;20433;-79
2020/12/26 04:17:58;;;;;;;4.97;3.17;;;3.30;93.10;;;;;;2049005;28;20402;-79
2020/12/26 04:18:59;;;;;;;4.68;3.05;;;3.30;93.10;;;;;;2042642;29;20127;-79
2020/12/26 04:20:00;;;;;;;5.88;3.35;;;3.30;93.10;;;;;;2046252;28;20023;-79
2020/12/26 04:21:00;;;;;;;5.68;3.13;;;3.20;93.10;;;;;;2048363;28;20038;-79
2020/12/26 04:22:01;;;;;;;6.00;3.10;;;3.30;93.10;;;;;;2048056;28;20410;-80
2020/12/26 04:23:01;;;;;;;4.88;3.00;;;3.20;93.10;;;;;;2050892;28;20166;-80
2020/12/26 04:24:02;;;;;;;5.82;3.35;;;3.20;93.40;;;;;;2046776;28;20023;-80
2020/12/26 04:25:03;;;;;;;4.43;2.80;;;3.20;93.10;;;;;;2043665;29;20027;-80
2020/12/26 04:26:08;;;;;;;5.13;3.00;;;3.20;93.10;;;;;;2048576;28;20023;-80
2020/12/26 04:27:10;;;;;;;4.88;3.10;;;3.20;93.10;;;;;;2041803;28;20028;-80
2020/12/26 04:28:10;;;;;;;5.53;3.00;;;3.20;93.10;;;;;;2034096;29;20118;-80
2020/12/26 04:29:11;;;;;;;5.28;2.97;;;3.20;93.40;;;;;;2043720;29;20027;-80
2020/12/26 04:30:12;;;;;;;6.55;3.55;;;3.20;93.20;;;;;;2047741;29;20164;-80
2020/12/26 04:31:12;;;;;;;4.70;2.80;;;3.10;93.10;;;;;;2047637;28;20470;-80
2020/12/26 04:32:13;;;;;;;4.10;2.67;;;3.20;93.20;;;;;;2043620;28;20059;-80
2020/12/26 04:33:14;;;;;;;4.68;2.75;;;3.10;93.20;;;;;;2041609;29;20046;-80
2020/12/26 04:34:15;;;;;;;4.65;3.03;;;3.10;93.20;;;;;;2041390;29;20422;-80
2020/12/26 04:35:19;;;;;;;5.38;2.90;;;3.10;93.20;;;;;;2056067;28;20035;-80
2020/12/26 04:36:20;;;;;;;4.85;2.58;;;3.10;93.20;;;;;;2049168;28;20034;-80
2020/12/26 04:37:20;;;;;;;5.07;2.72;;;3.10;93.20;;;;;;2051176;28;20137;-80
2020/12/26 04:38:21;;;;;;;4.63;2.60;;;3.10;93.20;;;;;;2052717;28;20051;-79
2020/12/26 04:39:21;;;;;;;4.47;2.70;;;3.10;93.20;;;;;;2041817;28;20471;-79
2020/12/26 04:40:22;;;;;;;4.93;3.17;;;3.10;93.30;;;;;;2042801;29;20039;-80
2020/12/26 04:41:24;;;;;;;4.93;2.72;;;3.10;93.30;;;;;;2054520;28;20429;-80
2020/12/26 04:42:24;;;;;;;5.35;2.75;;;3.00;93.20;;;;;;2053947;28;20027;-80
2020/12/26 04:43:26;;;;;;;5.97;2.90;;;3.10;93.30;;;;;;2045687;28;20035;-80
2020/12/26 04:44:28;;;;;;;4.95;2.80;;;3.00;93.30;;;;;;2042541;28;20090;-80
2020/12/26 04:45:29;;;;;;;5.20;2.75;;;3.00;93.30;;;;;;2050352;28;20078;-80
2020/12/26 04:46:37;;;;;;;5.30;2.72;;;3.00;93.50;;;;;;2048151;28;20034;-80
2020/12/26 04:47:46;;;;;;;4.88;2.80;;;3.00;93.30;;;;;;2048217;28;20035;-80
2020/12/26 04:49:04;;;;;;;5.47;2.65;;;3.00;93.30;;;;;;2048349;28;20432;-80
2020/12/26 04:50:06;;;;;;;3.95;2.60;;;3.00;93.30;;;;;;2048379;28;20395;-80
2020/12/26 04:51:09;;;;;;;5.80;2.80;;;3.00;93.30;;;;;;2055248;28;20069;-80
2020/12/26 04:52:10;;;;;;;4.68;2.40;;;3.00;93.30;;;;;;2055278;28;20027;-80
2020/12/26 04:53:18;;;;;;;4.50;2.85;;;3.00;93.30;;;;;;2055888;28;20026;-79
2020/12/26 04:54:26;;;;;;;4.97;2.63;;;2.90;93.30;;;;;;2051023;28;20029;-79
2020/12/26 04:55:30;;;;;;;3.90;2.55;;;2.90;93.30;;;;;;2054520;28;20054;-80
2020/12/26 04:56:40;;;;;;;4.35;2.53;;;2.90;93.30;;;;;;2056451;28;20019;-79
2020/12/26 04:57:41;;;;;;;5.28;2.42;;;3.00;93.30;;;;;;2055507;28;20023;-80
2020/12/26 04:58:44;;;;;;;4.57;2.33;;;2.90;93.30;;;;;;2050648;28;20039;-80
2020/12/26 04:59:45;;;;;;;4.30;2.30;;;2.90;93.30;;;;;;2055925;28;20031;-80
2020/12/26 05:00:46;;;;;;;6.38;2.80;;;2.90;93.30;;;;;;2055429;28;20420;-80
2020/12/26 05:01:47;;;;;;;4.88;2.58;;;2.90;93.30;;;;;;2041752;28;20051;-80
2020/12/26 05:02:52;;;;;;;3.60;2.38;;;2.90;93.30;;;;;;2026270;29;20060;-80
2020/12/26 05:03:58;;;;;;;4.60;2.33;;;2.90;93.40;;;;;;2041146;28;20035;-80
2020/12/26 05:05:01;;;;;;;4.32;2.40;;;2.90;93.40;;;;;;2050197;28;20027;-79
2020/12/26 05:06:06;;;;;;;4.82;2.60;;;2.90;93.40;;;;;;2049775;28;20031;-79
2020/12/26 05:07:06;;;;;;;4.60;2.50;;;2.90;93.40;;;;;;2053949;28;20509;-79
2020/12/26 05:08:11;;;;;;;2.85;2.00;;;2.80;93.40;;;;;;2063287;28;20031;-78
2020/12/26 05:09:13;;;;;;;4.00;2.50;;;2.80;93.40;;;;;;2048171;28;20053;-78
2020/12/26 05:10:13;;;;;;;5.72;2.70;;;2.80;93.40;;;;;;2048070;28;20035;-78
2020/12/26 05:11:14;;;;;;;4.38;2.50;;;2.80;93.40;;;;;;2049563;28;20031;-79
2020/12/26 05:12:15;;;;;;;4.38;2.40;;;2.80;93.40;;;;;;2047375;28;20480;-79
2020/12/26 05:13:15;;;;;;;4.35;2.28;;;2.80;93.40;;;;;;2046398;28;20035;-78
2020/12/26 05:14:17;;;;;;;5.30;2.65;;;2.80;93.40;;;;;;2045413;28;20034;-79
2020/12/26 05:15:21;;;;;;;4.68;2.30;;;2.80;93.40;;;;;;2056938;28;20031;-79
2020/12/26 05:16:21;;;;;;;3.83;2.10;;;2.80;93.40;;;;;;2055796;28;20133;-79
2020/12/26 05:17:25;;;;;;;4.22;2.05;;;2.80;93.40;;;;;;2046513;29;20023;-78
2020/12/26 05:18:25;;;;;;;5.68;2.70;;;2.80;93.40;;;;;;2038642;28;20034;-79
2020/12/26 05:19:26;;;;;;;4.93;2.20;;;2.80;93.40;;;;;;2056352;28;20417;-79
2020/12/26 05:20:27;;;;;;;3.72;2.38;;;2.80;93.50;;;;;;2055911;28;20037;-79
2020/12/26 05:21:28;;;;;;;4.30;2.13;;;2.80;93.50;;;;;;2056222;28;20038;-78
2020/12/26 05:22:28;;;;;;;3.45;2.08;;;2.80;93.50;;;;;;2049678;29;20122;-79
2020/12/26 05:23:29;;;;;;;4.28;2.20;;;2.80;93.50;;;;;;2057468;28;20485;-79